sensor_id;sensor_type;location;lat;lon;timestamp;P1;durP1;ratioP1;P2;durP2;ratioP2
74459;SDS011;62902;48.854;9.292;2023-03-29T00:01:37;515.78;;;297.75;;
74459;SDS011;62902;48.854;9.292;2023-03-29T00:04:07;514.72;;;299.20;;
74459;SDS011;62902;48.854;9.292;2023-03-29T00:06:35;517.28;;;301.30;;
74459;SDS011;62902;48.854;9.292;2023-03-29T00:09:03;517.95;;;303.77;;
74459;SDS011;62902;48.854;9.292;2023-03-29T00:13:57;510.05;;;304.45;;
74459;SDS011;62902;48.854;9.292;2023-03-29T00:16:24;515.90;;;303.48;;
74459;SDS011;62902;48.854;9.292;2023-03-29T00:18:50;528.17;;;309.73;;
74459;SDS011;62902;48.854;9.292;2023-03-29T00:21:17;512.97;;;295.05;;
74459;SDS011;62902;48.854;9.292;2023-03-29T00:23:43;519.63;;;296.27;;
74459;SDS011;62902;48.854;9.292;2023-03-29T00:26:10;488.48;;;259.83;;
74459;SDS011;62902;48.854;9.292;2023-03-29T00:28:37;488.25;;;255.23;;
74459;SDS011;62902;48.854;9.292;2023-03-29T00:31:05;475.98;;;244.13;;
74459;SDS011;62902;48.854;9.292;2023-03-29T00:33:36;515.63;;;285.50;;
74459;SDS011;62902;48.854;9.292;2023-03-29T00:36:03;505.25;;;277.60;;
74459;SDS011;62902;48.854;9.292;2023-03-29T00:38:30;529.88;;;301.10;;
74459;SDS011;62902;48.854;9.292;2023-03-29T00:40:57;515.83;;;283.95;;
74459;SDS011;62902;48.854;9.292;2023-03-29T00:43:24;511.58;;;280.00;;
74459;SDS011;62902;48.854;9.292;2023-03-29T00:45:51;518.55;;;281.23;;
74459;SDS011;62902;48.854;9.292;2023-03-29T00:48:19;538.45;;;305.05;;
74459;SDS011;62902;48.854;9.292;2023-03-29T00:50:51;542.58;;;309.48;;
74459;SDS011;62902;48.854;9.292;2023-03-29T00:53:26;549.67;;;317.17;;
74459;SDS011;62902;48.854;9.292;2023-03-29T00:56:02;515.65;;;277.10;;
74459;SDS011;62902;48.854;9.292;2023-03-29T00:58:42;550.65;;;316.95;;
74459;SDS011;62902;48.854;9.292;2023-03-29T01:01:16;551.88;;;321.13;;
74459;SDS011;62902;48.854;9.292;2023-03-29T01:03:48;553.67;;;319.23;;
74459;SDS011;62902;48.854;9.292;2023-03-29T01:06:20;554.25;;;322.58;;
74459;SDS011;62902;48.854;9.292;2023-03-29T01:08:51;558.92;;;325.08;;
74459;SDS011;62902;48.854;9.292;2023-03-29T01:11:21;548.17;;;316.65;;
74459;SDS011;62902;48.854;9.292;2023-03-29T01:13:59;549.40;;;319.67;;
74459;SDS011;62902;48.854;9.292;2023-03-29T01:16:30;562.13;;;333.83;;
74459;SDS011;62902;48.854;9.292;2023-03-29T01:18:58;566.30;;;330.08;;
74459;SDS011;62902;48.854;9.292;2023-03-29T01:21:29;568.72;;;335.65;;
74459;SDS011;62902;48.854;9.292;2023-03-29T01:24:06;567.92;;;337.90;;
74459;SDS011;62902;48.854;9.292;2023-03-29T01:32:07;558.65;;;337.55;;
74459;SDS011;62902;48.854;9.292;2023-03-29T01:35:21;549.60;;;325.98;;
74459;SDS011;62902;48.854;9.292;2023-03-29T01:37:40;544.83;;;324.48;;
74459;SDS011;62902;48.854;9.292;2023-03-29T01:40:10;563.25;;;344.45;;
74459;SDS011;62902;48.854;9.292;2023-03-29T01:50:50;551.90;;;332.50;;
74459;SDS011;62902;48.854;9.292;2023-03-29T01:53:24;554.60;;;333.40;;
74459;SDS011;62902;48.854;9.292;2023-03-29T01:55:54;545.03;;;328.17;;
74459;SDS011;62902;48.854;9.292;2023-03-29T01:58:25;524.40;;;295.98;;
74459;SDS011;62902;48.854;9.292;2023-03-29T02:00:54;527.35;;;299.35;;
74459;SDS011;62902;48.854;9.292;2023-03-29T02:03:24;536.53;;;317.10;;
74459;SDS011;62902;48.854;9.292;2023-03-29T02:05:53;552.05;;;331.65;;
74459;SDS011;62902;48.854;9.292;2023-03-29T02:08:20;547.95;;;331.70;;
74459;SDS011;62902;48.854;9.292;2023-03-29T02:10:47;543.25;;;317.42;;
74459;SDS011;62902;48.854;9.292;2023-03-29T02:13:15;539.47;;;317.63;;
74459;SDS011;62902;48.854;9.292;2023-03-29T02:18:10;531.20;;;318.15;;
74459;SDS011;62902;48.854;9.292;2023-03-29T02:20:39;547.75;;;324.55;;
74459;SDS011;62902;48.854;9.292;2023-03-29T02:23:19;537.70;;;313.30;;
74459;SDS011;62902;48.854;9.292;2023-03-29T02:25:49;534.55;;;304.80;;
74459;SDS011;62902;48.854;9.292;2023-03-29T02:28:20;540.67;;;307.88;;
74459;SDS011;62902;48.854;9.292;2023-03-29T02:30:52;544.72;;;310.23;;
74459;SDS011;62902;48.854;9.292;2023-03-29T02:33:38;549.88;;;320.27;;
74459;SDS011;62902;48.854;9.292;2023-03-29T02:36:17;557.65;;;325.52;;
74459;SDS011;62902;48.854;9.292;2023-03-29T02:38:50;535.55;;;300.23;;
74459;SDS011;62902;48.854;9.292;2023-03-29T02:43:44;513.97;;;291.73;;
74459;SDS011;62902;48.854;9.292;2023-03-29T02:46:11;510.30;;;288.80;;
74459;SDS011;62902;48.854;9.292;2023-03-29T02:48:38;509.00;;;284.38;;
74459;SDS011;62902;48.854;9.292;2023-03-29T02:51:08;505.75;;;279.50;;
74459;SDS011;62902;48.854;9.292;2023-03-29T02:53:50;509.45;;;280.13;;
74459;SDS011;62902;48.854;9.292;2023-03-29T02:56:24;517.40;;;291.15;;
74459;SDS011;62902;48.854;9.292;2023-03-29T02:58:51;533.95;;;309.73;;
74459;SDS011;62902;48.854;9.292;2023-03-29T03:01:17;528.25;;;299.77;;
74459;SDS011;62902;48.854;9.292;2023-03-29T03:03:47;537.97;;;318.30;;
74459;SDS011;62902;48.854;9.292;2023-03-29T03:06:17;527.10;;;299.70;;
74459;SDS011;62902;48.854;9.292;2023-03-29T03:08:43;525.35;;;308.75;;
74459;SDS011;62902;48.854;9.292;2023-03-29T03:11:10;525.30;;;296.88;;
74459;SDS011;62902;48.854;9.292;2023-03-29T03:13:37;512.40;;;284.08;;
74459;SDS011;62902;48.854;9.292;2023-03-29T03:16:05;524.15;;;297.75;;
74459;SDS011;62902;48.854;9.292;2023-03-29T03:18:33;520.70;;;299.38;;
74459;SDS011;62902;48.854;9.292;2023-03-29T03:20:59;546.10;;;322.25;;
74459;SDS011;62902;48.854;9.292;2023-03-29T03:23:27;563.15;;;345.88;;
74459;SDS011;62902;48.854;9.292;2023-03-29T03:25:55;558.08;;;340.50;;
74459;SDS011;62902;48.854;9.292;2023-03-29T03:28:22;544.58;;;331.75;;
74459;SDS011;62902;48.854;9.292;2023-03-29T03:30:49;548.80;;;340.45;;
74459;SDS011;62902;48.854;9.292;2023-03-29T03:33:22;554.75;;;350.33;;
74459;SDS011;62902;48.854;9.292;2023-03-29T03:36:09;539.97;;;341.15;;
74459;SDS011;62902;48.854;9.292;2023-03-29T03:38:36;541.55;;;337.55;;
74459;SDS011;62902;48.854;9.292;2023-03-29T03:41:04;316.05;;;158.38;;
74459;SDS011;62902;48.854;9.292;2023-03-29T03:43:32;520.20;;;324.58;;
74459;SDS011;62902;48.854;9.292;2023-03-29T03:45:59;519.58;;;326.00;;
74459;SDS011;62902;48.854;9.292;2023-03-29T03:48:28;303.88;;;169.98;;
74459;SDS011;62902;48.854;9.292;2023-03-29T03:51:04;183.20;;;94.25;;
74459;SDS011;62902;48.854;9.292;2023-03-29T03:53:33;182.15;;;94.13;;
74459;SDS011;62902;48.854;9.292;2023-03-29T03:56:12;183.93;;;94.90;;
74459;SDS011;62902;48.854;9.292;2023-03-29T03:58:58;185.48;;;95.57;;
74459;SDS011;62902;48.854;9.292;2023-03-29T04:01:26;174.27;;;90.07;;
74459;SDS011;62902;48.854;9.292;2023-03-29T04:04:11;185.63;;;93.88;;
74459;SDS011;62902;48.854;9.292;2023-03-29T04:06:41;207.98;;;103.63;;
74459;SDS011;62902;48.854;9.292;2023-03-29T04:09:31;205.98;;;103.22;;
74459;SDS011;62902;48.854;9.292;2023-03-29T04:12:24;206.65;;;103.53;;
74459;SDS011;62902;48.854;9.292;2023-03-29T04:14:51;221.20;;;110.25;;
74459;SDS011;62902;48.854;9.292;2023-03-29T04:17:19;204.35;;;103.00;;
74459;SDS011;62902;48.854;9.292;2023-03-29T04:20:06;209.13;;;104.63;;
74459;SDS011;62902;48.854;9.292;2023-03-29T04:22:38;199.55;;;100.63;;
74459;SDS011;62902;48.854;9.292;2023-03-29T04:25:05;204.85;;;102.07;;
74459;SDS011;62902;48.854;9.292;2023-03-29T04:27:45;203.85;;;101.93;;
74459;SDS011;62902;48.854;9.292;2023-03-29T04:30:39;205.57;;;103.00;;
74459;SDS011;62902;48.854;9.292;2023-03-29T04:33:24;200.60;;;99.88;;
74459;SDS011;62902;48.854;9.292;2023-03-29T04:35:57;220.88;;;108.82;;
74459;SDS011;62902;48.854;9.292;2023-03-29T04:38:24;225.57;;;111.30;;
74459;SDS011;62902;48.854;9.292;2023-03-29T04:40:53;237.70;;;116.97;;
74459;SDS011;62902;48.854;9.292;2023-03-29T04:43:46;216.60;;;107.15;;
74459;SDS011;62902;48.854;9.292;2023-03-29T04:46:20;223.40;;;109.40;;
74459;SDS011;62902;48.854;9.292;2023-03-29T04:49:08;233.45;;;113.20;;
74459;SDS011;62902;48.854;9.292;2023-03-29T04:51:38;242.38;;;118.28;;
74459;SDS011;62902;48.854;9.292;2023-03-29T04:54:05;236.60;;;114.25;;
74459;SDS011;62902;48.854;9.292;2023-03-29T04:56:53;244.63;;;118.90;;
74459;SDS011;62902;48.854;9.292;2023-03-29T04:59:33;278.58;;;132.90;;
74459;SDS011;62902;48.854;9.292;2023-03-29T05:02:04;308.33;;;148.13;;
74459;SDS011;62902;48.854;9.292;2023-03-29T05:04:34;308.80;;;148.07;;
74459;SDS011;62902;48.854;9.292;2023-03-29T05:07:10;232.02;;;113.38;;
74459;SDS011;62902;48.854;9.292;2023-03-29T05:09:38;242.38;;;116.18;;
74459;SDS011;62902;48.854;9.292;2023-03-29T05:12:07;256.83;;;122.40;;
74459;SDS011;62902;48.854;9.292;2023-03-29T05:14:47;224.05;;;110.60;;
74459;SDS011;62902;48.854;9.292;2023-03-29T05:17:14;300.83;;;147.43;;
74459;SDS011;62902;48.854;9.292;2023-03-29T05:19:41;234.65;;;113.55;;
74459;SDS011;62902;48.854;9.292;2023-03-29T05:22:08;193.65;;;96.60;;
74459;SDS011;62902;48.854;9.292;2023-03-29T05:24:36;206.18;;;101.88;;
74459;SDS011;62902;48.854;9.292;2023-03-29T05:27:09;204.52;;;99.40;;
74459;SDS011;62902;48.854;9.292;2023-03-29T05:29:37;281.02;;;131.98;;
74459;SDS011;62902;48.854;9.292;2023-03-29T05:32:34;281.00;;;139.00;;
74459;SDS011;62902;48.854;9.292;2023-03-29T05:35:03;423.88;;;225.35;;
74459;SDS011;62902;48.854;9.292;2023-03-29T05:37:32;467.73;;;259.33;;
74459;SDS011;62902;48.854;9.292;2023-03-29T05:40:00;398.05;;;207.95;;
74459;SDS011;62902;48.854;9.292;2023-03-29T05:42:47;388.60;;;203.10;;
74459;SDS011;62902;48.854;9.292;2023-03-29T05:45:14;465.30;;;241.85;;
74459;SDS011;62902;48.854;9.292;2023-03-29T05:47:41;465.70;;;239.05;;
74459;SDS011;62902;48.854;9.292;2023-03-29T05:50:08;413.60;;;201.43;;
74459;SDS011;62902;48.854;9.292;2023-03-29T05:52:35;387.98;;;184.00;;
74459;SDS011;62902;48.854;9.292;2023-03-29T05:55:03;386.02;;;182.77;;
74459;SDS011;62902;48.854;9.292;2023-03-29T05:57:30;387.83;;;186.75;;
74459;SDS011;62902;48.854;9.292;2023-03-29T05:59:57;435.67;;;215.30;;
74459;SDS011;62902;48.854;9.292;2023-03-29T06:02:23;429.27;;;206.65;;
74459;SDS011;62902;48.854;9.292;2023-03-29T06:04:52;432.38;;;212.40;;
74459;SDS011;62902;48.854;9.292;2023-03-29T06:07:22;428.73;;;219.55;;
74459;SDS011;62902;48.854;9.292;2023-03-29T06:10:18;376.27;;;174.85;;
74459;SDS011;62902;48.854;9.292;2023-03-29T06:12:50;391.30;;;182.88;;
74459;SDS011;62902;48.854;9.292;2023-03-29T06:15:20;388.63;;;184.82;;
74459;SDS011;62902;48.854;9.292;2023-03-29T06:18:02;340.58;;;160.95;;
74459;SDS011;62902;48.854;9.292;2023-03-29T06:20:29;220.13;;;104.20;;
74459;SDS011;62902;48.854;9.292;2023-03-29T06:23:09;241.00;;;113.05;;
74459;SDS011;62902;48.854;9.292;2023-03-29T06:25:36;235.15;;;111.65;;
74459;SDS011;62902;48.854;9.292;2023-03-29T06:28:04;363.85;;;170.10;;
74459;SDS011;62902;48.854;9.292;2023-03-29T06:30:32;419.55;;;193.43;;
74459;SDS011;62902;48.854;9.292;2023-03-29T06:32:59;387.30;;;175.90;;
74459;SDS011;62902;48.854;9.292;2023-03-29T06:35:45;265.55;;;120.05;;
74459;SDS011;62902;48.854;9.292;2023-03-29T06:38:15;277.02;;;123.97;;
74459;SDS011;62902;48.854;9.292;2023-03-29T06:41:03;289.23;;;132.32;;
74459;SDS011;62902;48.854;9.292;2023-03-29T06:43:59;301.50;;;135.63;;
74459;SDS011;62902;48.854;9.292;2023-03-29T06:46:31;250.55;;;116.05;;
74459;SDS011;62902;48.854;9.292;2023-03-29T06:49:03;285.67;;;131.50;;
74459;SDS011;62902;48.854;9.292;2023-03-29T06:51:36;297.40;;;144.73;;
74459;SDS011;62902;48.854;9.292;2023-03-29T06:54:02;272.10;;;130.80;;
74459;SDS011;62902;48.854;9.292;2023-03-29T06:56:29;238.93;;;124.68;;
74459;SDS011;62902;48.854;9.292;2023-03-29T06:59:03;158.15;;;88.40;;
74459;SDS011;62902;48.854;9.292;2023-03-29T07:01:50;80.97;;;52.53;;
74459;SDS011;62902;48.854;9.292;2023-03-29T07:04:30;83.18;;;56.42;;
74459;SDS011;62902;48.854;9.292;2023-03-29T07:07:06;152.20;;;82.47;;
74459;SDS011;62902;48.854;9.292;2023-03-29T07:09:37;110.68;;;64.07;;
74459;SDS011;62902;48.854;9.292;2023-03-29T07:12:24;105.50;;;60.78;;
74459;SDS011;62902;48.854;9.292;2023-03-29T07:14:56;173.07;;;84.97;;
74459;SDS011;62902;48.854;9.292;2023-03-29T07:17:29;244.40;;;113.97;;
74459;SDS011;62902;48.854;9.292;2023-03-29T07:19:56;434.45;;;189.57;;
74459;SDS011;62902;48.854;9.292;2023-03-29T07:22:48;365.95;;;151.90;;
74459;SDS011;62902;48.854;9.292;2023-03-29T07:25:19;467.00;;;205.73;;
74459;SDS011;62902;48.854;9.292;2023-03-29T07:27:48;362.02;;;154.45;;
74459;SDS011;62902;48.854;9.292;2023-03-29T07:30:17;240.00;;;107.90;;
74459;SDS011;62902;48.854;9.292;2023-03-29T07:32:45;217.85;;;98.95;;
74459;SDS011;62902;48.854;9.292;2023-03-29T07:35:47;230.98;;;104.18;;
74459;SDS011;62902;48.854;9.292;2023-03-29T07:38:14;266.13;;;117.47;;
74459;SDS011;62902;48.854;9.292;2023-03-29T07:40:46;235.75;;;106.18;;
74459;SDS011;62902;48.854;9.292;2023-03-29T07:43:38;200.05;;;94.65;;
74459;SDS011;62902;48.854;9.292;2023-03-29T07:46:05;219.40;;;101.25;;
74459;SDS011;62902;48.854;9.292;2023-03-29T07:48:33;227.98;;;103.65;;
74459;SDS011;62902;48.854;9.292;2023-03-29T07:51:04;224.57;;;104.00;;
74459;SDS011;62902;48.854;9.292;2023-03-29T07:53:41;240.02;;;108.15;;
74459;SDS011;62902;48.854;9.292;2023-03-29T07:56:27;266.35;;;117.57;;
74459;SDS011;62902;48.854;9.292;2023-03-29T07:59:08;169.65;;;81.90;;
74459;SDS011;62902;48.854;9.292;2023-03-29T08:01:36;192.13;;;88.85;;
74459;SDS011;62902;48.854;9.292;2023-03-29T08:04:11;184.50;;;86.07;;
74459;SDS011;62902;48.854;9.292;2023-03-29T08:06:58;232.52;;;101.97;;
74459;SDS011;62902;48.854;9.292;2023-03-29T08:09:39;236.63;;;107.25;;
74459;SDS011;62902;48.854;9.292;2023-03-29T08:12:06;103.32;;;61.45;;
74459;SDS011;62902;48.854;9.292;2023-03-29T08:14:35;206.30;;;94.50;;
74459;SDS011;62902;48.854;9.292;2023-03-29T08:17:12;222.23;;;99.57;;
74459;SDS011;62902;48.854;9.292;2023-03-29T08:19:44;261.05;;;114.63;;
74459;SDS011;62902;48.854;9.292;2023-03-29T08:22:20;195.65;;;89.97;;
74459;SDS011;62902;48.854;9.292;2023-03-29T08:25:19;251.60;;;109.40;;
74459;SDS011;62902;48.854;9.292;2023-03-29T08:27:50;217.02;;;97.78;;
74459;SDS011;62902;48.854;9.292;2023-03-29T08:30:27;291.50;;;123.18;;
74459;SDS011;62902;48.854;9.292;2023-03-29T08:35:24;254.50;;;108.82;;
74459;SDS011;62902;48.854;9.292;2023-03-29T08:38:14;303.08;;;123.68;;
74459;SDS011;62902;48.854;9.292;2023-03-29T08:40:41;372.33;;;147.73;;
74459;SDS011;62902;48.854;9.292;2023-03-29T08:46:18;328.52;;;131.13;;
74459;SDS011;62902;48.854;9.292;2023-03-29T08:49:09;300.95;;;121.35;;
74459;SDS011;62902;48.854;9.292;2023-03-29T08:51:39;292.70;;;119.07;;
74459;SDS011;62902;48.854;9.292;2023-03-29T08:54:12;257.13;;;108.95;;
74459;SDS011;62902;48.854;9.292;2023-03-29T08:57:23;299.58;;;122.97;;
74459;SDS011;62902;48.854;9.292;2023-03-29T08:59:59;295.98;;;122.32;;
74459;SDS011;62902;48.854;9.292;2023-03-29T09:02:29;271.85;;;114.10;;
74459;SDS011;62902;48.854;9.292;2023-03-29T09:05:06;275.58;;;114.00;;
74459;SDS011;62902;48.854;9.292;2023-03-29T09:07:40;310.33;;;127.00;;
74459;SDS011;62902;48.854;9.292;2023-03-29T09:10:11;276.85;;;115.90;;
74459;SDS011;62902;48.854;9.292;2023-03-29T09:15:26;236.13;;;100.63;;
74459;SDS011;62902;48.854;9.292;2023-03-29T09:18:28;380.67;;;149.10;;
74459;SDS011;62902;48.854;9.292;2023-03-29T09:26:40;342.80;;;137.48;;
74459;SDS011;62902;48.854;9.292;2023-03-29T09:32:05;152.77;;;77.35;;
74459;SDS011;62902;48.854;9.292;2023-03-29T09:34:43;335.90;;;133.45;;
74459;SDS011;62902;48.854;9.292;2023-03-29T09:37:21;207.68;;;93.47;;
74459;SDS011;62902;48.854;9.292;2023-03-29T09:40:11;250.98;;;109.03;;
74459;SDS011;62902;48.854;9.292;2023-03-29T09:42:51;296.15;;;122.47;;
74459;SDS011;62902;48.854;9.292;2023-03-29T09:45:19;339.60;;;134.82;;
74459;SDS011;62902;48.854;9.292;2023-03-29T09:47:59;259.88;;;111.53;;
74459;SDS011;62902;48.854;9.292;2023-03-29T09:50:33;45.50;;;38.78;;
74459;SDS011;62902;48.854;9.292;2023-03-29T09:53:07;39.40;;;35.58;;
74459;SDS011;62902;48.854;9.292;2023-03-29T09:55:37;81.57;;;55.05;;
74459;SDS011;62902;48.854;9.292;2023-03-29T09:58:21;238.65;;;104.75;;
74459;SDS011;62902;48.854;9.292;2023-03-29T10:00:50;74.88;;;52.80;;
74459;SDS011;62902;48.854;9.292;2023-03-29T10:03:19;115.13;;;65.55;;
74459;SDS011;62902;48.854;9.292;2023-03-29T10:06:01;461.27;;;176.30;;
74459;SDS011;62902;48.854;9.292;2023-03-29T10:11:19;163.38;;;82.03;;
74459;SDS011;62902;48.854;9.292;2023-03-29T10:13:49;194.65;;;90.82;;
74459;SDS011;62902;48.854;9.292;2023-03-29T10:16:24;233.45;;;101.72;;
74459;SDS011;62902;48.854;9.292;2023-03-29T10:18:54;258.48;;;109.22;;
74459;SDS011;62902;48.854;9.292;2023-03-29T10:21:21;236.93;;;101.78;;
74459;SDS011;62902;48.854;9.292;2023-03-29T10:23:51;285.63;;;118.40;;
74459;SDS011;62902;48.854;9.292;2023-03-29T10:28:53;212.70;;;95.88;;
74459;SDS011;62902;48.854;9.292;2023-03-29T10:31:22;302.35;;;123.10;;
74459;SDS011;62902;48.854;9.292;2023-03-29T10:33:50;236.45;;;102.50;;
74459;SDS011;62902;48.854;9.292;2023-03-29T10:36:18;39.72;;;35.50;;
74459;SDS011;62902;48.854;9.292;2023-03-29T10:38:47;72.25;;;51.53;;
74459;SDS011;62902;48.854;9.292;2023-03-29T10:41:18;174.32;;;83.20;;
74459;SDS011;62902;48.854;9.292;2023-03-29T10:43:47;273.75;;;111.53;;
74459;SDS011;62902;48.854;9.292;2023-03-29T10:48:59;488.95;;;184.27;;
74459;SDS011;62902;48.854;9.292;2023-03-29T10:51:31;629.90;;;265.80;;
74459;SDS011;62902;48.854;9.292;2023-03-29T10:53:59;744.45;;;312.17;;
74459;SDS011;62902;48.854;9.292;2023-03-29T10:56:38;725.75;;;292.80;;
74459;SDS011;62902;48.854;9.292;2023-03-29T11:12:24;717.72;;;274.50;;
74459;SDS011;62902;48.854;9.292;2023-03-29T11:15:21;828.25;;;315.52;;
74459;SDS011;62902;48.854;9.292;2023-03-29T11:20:47;985.78;;;366.92;;
74459;SDS011;62902;48.854;9.292;2023-03-29T11:23:23;1069.55;;;403.13;;
74459;SDS011;62902;48.854;9.292;2023-03-29T11:26:21;1164.32;;;433.65;;
74459;SDS011;62902;48.854;9.292;2023-03-29T11:41:45;591.37;;;71.00;;
74459;SDS011;62902;48.854;9.292;2023-03-29T11:44:16;591.03;;;77.33;;
74459;SDS011;62902;48.854;9.292;2023-03-29T11:46:48;687.78;;;182.98;;
74459;SDS011;62902;48.854;9.292;2023-03-29T11:52:15;1079.78;;;395.48;;
74459;SDS011;62902;48.854;9.292;2023-03-29T11:57:50;929.20;;;245.45;;
74459;SDS011;62902;48.854;9.292;2023-03-29T12:00:34;594.97;;;123.97;;
74459;SDS011;62902;48.854;9.292;2023-03-29T12:08:38;578.30;;;111.45;;
74459;SDS011;62902;48.854;9.292;2023-03-29T12:11:13;546.15;;;123.07;;
74459;SDS011;62902;48.854;9.292;2023-03-29T12:13:49;552.05;;;133.00;;
74459;SDS011;62902;48.854;9.292;2023-03-29T12:16:33;553.50;;;133.00;;
74459;SDS011;62902;48.854;9.292;2023-03-29T12:19:04;479.87;;;138.23;;
74459;SDS011;62902;48.854;9.292;2023-03-29T12:21:39;449.58;;;160.43;;
74459;SDS011;62902;48.854;9.292;2023-03-29T12:24:10;346.55;;;218.05;;
74459;SDS011;62902;48.854;9.292;2023-03-29T13:09:45;1103.25;;;399.83;;
74459;SDS011;62902;48.854;9.292;2023-03-29T13:12:24;480.00;;;166.30;;
74459;SDS011;62902;48.854;9.292;2023-03-29T13:14:56;314.20;;;144.05;;
74459;SDS011;62902;48.854;9.292;2023-03-29T13:17:25;561.30;;;102.50;;
74459;SDS011;62902;48.854;9.292;2023-03-29T13:31:30;477.30;;;173.00;;
74459;SDS011;62902;48.854;9.292;2023-03-29T13:34:15;400.57;;;198.67;;
74459;SDS011;62902;48.854;9.292;2023-03-29T13:39:28;461.10;;;182.70;;
74459;SDS011;62902;48.854;9.292;2023-03-29T13:47:37;447.90;;;201.70;;
74459;SDS011;62902;48.854;9.292;2023-03-29T13:50:19;483.30;;;165.35;;
74459;SDS011;62902;48.854;9.292;2023-03-29T13:52:58;500.17;;;152.82;;
74459;SDS011;62902;48.854;9.292;2023-03-29T13:55:30;507.77;;;150.68;;
74459;SDS011;62902;48.854;9.292;2023-03-29T13:58:09;510.70;;;145.60;;
74459;SDS011;62902;48.854;9.292;2023-03-29T14:03:07;517.93;;;143.27;;
74459;SDS011;62902;48.854;9.292;2023-03-29T14:05:38;519.97;;;149.60;;
74459;SDS011;62902;48.854;9.292;2023-03-29T14:08:09;515.60;;;145.70;;
74459;SDS011;62902;48.854;9.292;2023-03-29T14:10:41;511.52;;;151.32;;
74459;SDS011;62902;48.854;9.292;2023-03-29T14:13:11;523.90;;;141.70;;
74459;SDS011;62902;48.854;9.292;2023-03-29T14:15:41;572.45;;;74.63;;
74459;SDS011;62902;48.854;9.292;2023-03-29T14:18:11;574.97;;;80.93;;
74459;SDS011;62902;48.854;9.292;2023-03-29T14:20:38;557.47;;;85.78;;
74459;SDS011;62902;48.854;9.292;2023-03-29T14:23:09;576.47;;;76.22;;
74459;SDS011;62902;48.854;9.292;2023-03-29T14:25:39;603.70;;;57.70;;
74459;SDS011;62902;48.854;9.292;2023-03-29T14:28:26;585.10;;;59.95;;
74459;SDS011;62902;48.854;9.292;2023-03-29T14:30:54;585.05;;;58.75;;
74459;SDS011;62902;48.854;9.292;2023-03-29T14:35:54;585.10;;;59.65;;
74459;SDS011;62902;48.854;9.292;2023-03-29T14:38:22;825.72;;;229.80;;
74459;SDS011;62902;48.854;9.292;2023-03-29T14:40:50;927.60;;;350.15;;
74459;SDS011;62902;48.854;9.292;2023-03-29T14:43:17;1118.90;;;430.02;;
74459;SDS011;62902;48.854;9.292;2023-03-29T14:45:47;785.60;;;316.48;;
74459;SDS011;62902;48.854;9.292;2023-03-29T14:48:14;657.45;;;249.85;;
74459;SDS011;62902;48.854;9.292;2023-03-29T14:50:41;604.67;;;226.30;;
74459;SDS011;62902;48.854;9.292;2023-03-29T14:53:15;567.30;;;207.75;;
74459;SDS011;62902;48.854;9.292;2023-03-29T14:55:45;555.45;;;205.13;;
74459;SDS011;62902;48.854;9.292;2023-03-29T14:58:21;779.72;;;297.08;;
74459;SDS011;62902;48.854;9.292;2023-03-29T15:01:02;1055.80;;;407.20;;
74459;SDS011;62902;48.854;9.292;2023-03-29T15:03:43;555.70;;;133.90;;
74459;SDS011;62902;48.854;9.292;2023-03-29T15:06:20;541.40;;;142.00;;
74459;SDS011;62902;48.854;9.292;2023-03-29T15:08:48;544.47;;;141.40;;
74459;SDS011;62902;48.854;9.292;2023-03-29T15:11:31;504.75;;;144.85;;
74459;SDS011;62902;48.854;9.292;2023-03-29T15:14:13;484.65;;;147.60;;
74459;SDS011;62902;48.854;9.292;2023-03-29T15:16:41;437.30;;;172.57;;
74459;SDS011;62902;48.854;9.292;2023-03-29T15:19:19;483.60;;;149.20;;
74459;SDS011;62902;48.854;9.292;2023-03-29T15:21:47;487.35;;;155.65;;
74459;SDS011;62902;48.854;9.292;2023-03-29T15:24:19;450.00;;;165.47;;
74459;SDS011;62902;48.854;9.292;2023-03-29T15:26:56;298.90;;;100.75;;
74459;SDS011;62902;48.854;9.292;2023-03-29T15:29:32;423.90;;;193.20;;
74459;SDS011;62902;48.854;9.292;2023-03-29T15:32:01;451.83;;;169.70;;
74459;SDS011;62902;48.854;9.292;2023-03-29T15:34:30;422.55;;;200.60;;
74459;SDS011;62902;48.854;9.292;2023-03-29T15:36:57;411.90;;;197.17;;
74459;SDS011;62902;48.854;9.292;2023-03-29T15:39:25;413.10;;;201.40;;
74459;SDS011;62902;48.854;9.292;2023-03-29T15:41:53;432.70;;;189.35;;
74459;SDS011;62902;48.854;9.292;2023-03-29T15:44:25;417.20;;;189.23;;
74459;SDS011;62902;48.854;9.292;2023-03-29T15:46:53;293.50;;;110.70;;
74459;SDS011;62902;48.854;9.292;2023-03-29T16:11:26;276.75;;;99.85;;
74459;SDS011;62902;48.854;9.292;2023-03-29T16:13:54;435.30;;;183.45;;
74459;SDS011;62902;48.854;9.292;2023-03-29T16:16:24;433.20;;;189.90;;
74459;SDS011;62902;48.854;9.292;2023-03-29T16:18:51;412.60;;;207.60;;
74459;SDS011;62902;48.854;9.292;2023-03-29T16:21:18;461.00;;;172.30;;
74459;SDS011;62902;48.854;9.292;2023-03-29T16:23:50;461.67;;;177.47;;
74459;SDS011;62902;48.854;9.292;2023-03-29T16:26:16;466.95;;;173.75;;
74459;SDS011;62902;48.854;9.292;2023-03-29T16:28:44;477.05;;;167.50;;
74459;SDS011;62902;48.854;9.292;2023-03-29T16:31:11;495.70;;;161.50;;
74459;SDS011;62902;48.854;9.292;2023-03-29T16:33:39;431.50;;;199.30;;
74459;SDS011;62902;48.854;9.292;2023-03-29T16:36:06;454.47;;;175.23;;
74459;SDS011;62902;48.854;9.292;2023-03-29T16:38:33;468.50;;;162.45;;
74459;SDS011;62902;48.854;9.292;2023-03-29T16:41:00;473.20;;;156.70;;
74459;SDS011;62902;48.854;9.292;2023-03-29T16:43:27;485.63;;;151.83;;
74459;SDS011;62902;48.854;9.292;2023-03-29T16:45:53;456.15;;;170.15;;
74459;SDS011;62902;48.854;9.292;2023-03-29T16:48:20;444.10;;;176.50;;
74459;SDS011;62902;48.854;9.292;2023-03-29T16:50:47;403.95;;;198.60;;
74459;SDS011;62902;48.854;9.292;2023-03-29T16:56:02;490.25;;;156.70;;
74459;SDS011;62902;48.854;9.292;2023-03-29T16:58:29;459.90;;;168.70;;
74459;SDS011;62902;48.854;9.292;2023-03-29T17:00:56;443.90;;;182.50;;
74459;SDS011;62902;48.854;9.292;2023-03-29T17:03:22;491.83;;;159.17;;
74459;SDS011;62902;48.854;9.292;2023-03-29T17:05:51;481.80;;;162.10;;
74459;SDS011;62902;48.854;9.292;2023-03-29T17:08:19;415.63;;;204.97;;
74459;SDS011;62902;48.854;9.292;2023-03-29T17:10:50;441.80;;;184.85;;
74459;SDS011;62902;48.854;9.292;2023-03-29T17:13:19;431.10;;;194.00;;
74459;SDS011;62902;48.854;9.292;2023-03-29T17:15:47;320.60;;;176.10;;
74459;SDS011;62902;48.854;9.292;2023-03-29T17:18:20;415.25;;;206.80;;
74459;SDS011;62902;48.854;9.292;2023-03-29T17:20:51;435.95;;;185.55;;
74459;SDS011;62902;48.854;9.292;2023-03-29T17:23:21;478.80;;;159.90;;
74459;SDS011;62902;48.854;9.292;2023-03-29T17:25:48;485.50;;;162.40;;
74459;SDS011;62902;48.854;9.292;2023-03-29T17:28:14;450.43;;;173.23;;
74459;SDS011;62902;48.854;9.292;2023-03-29T17:30:43;477.90;;;169.60;;